ADDS METAR Data INFO
IDs: Format: Raw Decoded Include TAF

Data at: 1510 UTC 29 May 2017

EGBB 291450Z VRB02KT 3400 RA FEW004 BKN005 OVC030 17/17 Q1011

EGBE 291450Z VRB03KT 6000 -RA SCT007 BKN010 18/18 Q1011

EGBJ 291450Z 00000KT 7000 -RA FEW006 SCT010 18/16 Q1011

EGVN 291450Z 00000KT 5000 -RA OVC008 17/16 Q1011 TEMPO 4000 RA

EGTK 291450Z VRB03KT 9999 BKN008 OVC010 18/16 Q1011

No METAR found for EGWC


Page loaded:  15:10 UTC  |   08:10 AM Pacific  |   09:10 AM Mountain  |   10:10 AM Central  |   11:10 AM Eastern

 

ADVISORIES

FORECASTS

FORECASTS

OBSERVATIONS

USER TOOLS

ABOUT US